• Join FlightAware (Why Join?)
  • Login
  • US Flag 
12:08PM EDT


 

Airport Tracker/Info


-or-


 

Live Flight TrackerFlight Track Log ✈ N5DA ✈ 14-Jun-2013 ✈ KSAV - KCLL

Flight Track Log - Related Links

Times and Time Zones

All times are in EDT time to prevent confusion due to time zone crossing. See the N5DA flight status page for this flight to view local times or setup timezone preferences in your user account.

Time Position Orientation Groundspeed Altitude Reporting Facility
EDT Latitude Longitude Course Direction KTS MPH feet Rate Location/Type
03:50PM 32.1678 -81.2064 288° West 177 204 2,200  Level Jacksonville Center
03:51PM 32.2100 -81.2475 321° Northwest 267 307 5,900 3,840 Climbing Jacksonville Center
03:52PM 32.2528 -81.3156 307° West 274 315 9,900 3,060 Climbing Jacksonville Center
03:53PM 32.3061 -81.4103 304° West 287 330 12,100 2,640 Climbing Jacksonville Center
03:54PM 32.3447 -81.5131 294° West 330 380 15,200 3,000 Climbing Jacksonville Center
03:55PM 32.3628 -81.6236 281° West 363 418 18,200 2,400 Climbing Jacksonville Center
03:56PM 32.2823 -81.8461 288° West  Level FlightAware Approximate
03:56PM 32.3828 -81.7561 280° West 382 440 20,100  Level Jacksonville Center
03:57PM 32.4025 -81.8714 281° West 396 456 22,200 1,800 Climbing Jacksonville Center
03:58PM 32.4156 -81.9500 281° West 396 456 23,000 480 Climbing Atlanta Center
03:59PM 32.4364 -82.0797 281° West 403 464 23,000  Level Atlanta Center
04:00PM 32.4594 -82.2122 282° West 408 470 23,000 180 Level Atlanta Center
04:01PM 32.4800 -82.3375 281° West 408 470 23,400 1,740 Climbing Atlanta Center
04:02PM 32.5025 -82.4675 282° West 413 475 26,500 3,060 Climbing Atlanta Center
04:03PM 32.5253 -82.6050 281° West 413 475 29,600 2,700 Climbing Atlanta Center
04:04PM 32.5456 -82.7403 280° West 413 475 32,000 1,200 Climbing Atlanta Center
04:05PM 32.5675 -82.8731 281° West 418 481 32,000  Level Atlanta Center
04:06PM 32.5875 -82.9961 281° West 417 480 32,000 720 Level Atlanta Center
04:07PM 32.6094 -83.1264 281° West 417 480 33,500 1,500 Climbing Atlanta Center
04:08PM 32.6292 -83.2594 280° West 412 474 35,100 2,100 Climbing Atlanta Center
04:09PM 32.6508 -83.3900 281° West 412 474 37,700 1,980 Climbing Atlanta Center
04:10PM 32.6744 -83.5306 281° West 417 480 39,100 1,680 Climbing Atlanta Center
04:11PM 32.6936 -83.6661 280° West 422 486 41,100 1,740 Climbing Atlanta Center
04:12PM 32.6669 -83.8094 258° West 422 486 42,600 900 Climbing Atlanta Center
04:13PM 32.6419 -83.9525 258° West 432 497 43,000 180 Climbing Atlanta Center
04:14PM 32.6169 -84.0931 258° West 437 503 43,000  Level Atlanta Center
04:15PM 32.5939 -84.2336 259° West 437 503 43,000  Level Atlanta Center
04:16PM 32.5706 -84.3742 259° West 437 503 43,000  Level Atlanta Center
04:17PM 32.5450 -84.5194 258° West 443 510 43,000  Level Atlanta Center
04:18PM 32.5194 -84.6597 258° West 448 516 43,000  Level Atlanta Center
04:19PM 32.4956 -84.8022 259° West 448 516 43,000  Level Atlanta Center
04:20PM 32.4656 -84.9522 257° West 442 509 43,000  Level Atlanta Center
04:21PM 32.4456 -85.0922 260° West 442 509 43,000  Level Atlanta Center
04:22PM 32.4192 -85.2322 257° West 437 503 43,000  Level Atlanta Center
04:23PM 32.4053 -85.3722 263° West 437 503 43,000  Level Atlanta Center
04:24PM 32.3869 -85.5147 261° West 437 503 43,000  Level Atlanta Center
04:25PM 32.3728 -85.6547 263° West 437 503 43,000  Level Atlanta Center
04:26PM 32.3519 -85.7919 260° West 453 521 43,000  Level Atlanta Center
04:27PM 32.3353 -85.9342 262° West 459 528 43,000  Level Atlanta Center
04:28PM 32.3164 -86.0739 261° West 454 522 43,000  Level Atlanta Center
04:29PM 32.2992 -86.2183 262° West 449 517 43,000  Level Atlanta Center
04:30PM 32.2800 -86.3628 261° West 444 511 43,000  Level Atlanta Center
04:31PM 32.2664 -86.5247 264° West 444 511 43,000  Level Atlanta Center
04:32PM 32.2489 -86.6692 262° West 444 511 43,000  Level Atlanta Center
04:33PM 32.2272 -86.7936 258° West 444 511 43,000  Level Atlanta Center
04:34PM 32.2094 -86.9356 262° West 444 511 43,000  Level Atlanta Center
04:35PM 32.1933 -87.0797 263° West 449 517 43,000  Level Atlanta Center
04:36PM 32.1753 -87.2239 262° West 449 517 43,000  Level Atlanta Center
04:37PM 32.1547 -87.3678 260° West 449 517 43,000  Level Atlanta Center
04:39PM 32.1142 -87.6592 261° West 439 505 43,000  Level Houston Center
04:40PM 32.0947 -87.7967 261° West 432 497 43,000  Level Houston Center
04:41PM 32.0708 -87.9647 261° West 435 501 43,000  Level Houston Center
04:42PM 32.0519 -88.1039 261° West 434 499 43,000  Level Houston Center
04:43PM 32.0311 -88.2425 260° West 433 498 43,000  Level Houston Center
04:44PM 32.0094 -88.4072 261° West 429 494 43,000  Level Memphis Center
04:45PM 31.9886 -88.5450 260° West 429 494 43,000  Level Memphis Center
04:46PM 31.9675 -88.6825 260° West 429 494 43,000  Level Memphis Center
04:47PM 31.9464 -88.8200 260° West 429 494 43,000  Level Memphis Center
04:48PM 31.9231 -88.9794 260° West 440 506 43,000  Level Memphis Center
04:49PM 31.9017 -89.1142 259° West 440 506 43,000  Level Memphis Center
04:51PM 31.8606 -89.4011 260° West 429 494 43,000  Level Houston Center
04:52PM 31.8406 -89.5381 260° West 428 493 43,000  Level Houston Center
04:53PM 31.8189 -89.6742 259° West 428 493 43,000  Level Houston Center
04:54PM 31.7972 -89.8133 260° West 424 488 43,000  Level Houston Center
04:56PM 31.7753 -89.9483 259° West 423 487 43,000  Level Houston Center
04:57PM 31.7550 -90.0819 260° West 419 482 43,000  Level Houston Center
04:58PM 31.7281 -90.2447 259° West 425 489 43,000  Level Houston Center
04:59PM 31.7072 -90.3781 260° West 421 484 43,000  Level Houston Center
05:00PM 31.6850 -90.5131 259° West 424 488 43,000  Level Houston Center
05:01PM 31.6628 -90.6481 259° West 425 489 43,000  Level Houston Center
05:02PM 31.6408 -90.7817 259° West 421 484 43,000  Level Houston Center
05:03PM 31.6139 -90.9433 259° West 424 488 43,000  Level Houston Center
05:04PM 31.5931 -91.0769 260° West 420 483 43,000  Level Houston Center
05:05PM 31.5675 -91.2219 258° West 417 480 43,000  Level Houston Center
05:06PM 31.5456 -91.3544 259° West 415 478 43,000  Level Houston Center
05:07PM 31.5225 -91.4858 258° West 412 474 43,000  Level Houston Center
05:08PM 31.4997 -91.6192 259° West 416 479 43,000  Level Houston Center
05:09PM 31.4769 -91.7525 259° West 416 479 43,000  Level Houston Center
05:10PM 31.4539 -91.8853 259° West 416 479 43,000  Level Houston Center
05:11PM 31.4264 -92.0444 259° West 413 475 43,000  Level Houston Center
05:12PM 31.4039 -92.1578 257° West 419 482 43,000  Level Houston Center
05:13PM 31.3758 -92.3200 259° West 425 489 43,000  Level Houston Center
05:14PM 31.3503 -92.4556 258° West 428 493 43,000  Level Houston Center
05:15PM 31.3261 -92.5883 258° West 423 487 43,000  Level Houston Center
05:16PM 31.3044 -92.7253 260° West 426 490 43,000  Level Houston Center
05:17PM 31.2797 -92.8603 258° West 426 490 43,000  Level Houston Center
05:18PM 31.2503 -93.0189 258° West 419 482 43,000  Level Houston Center
05:19PM 31.2253 -93.1517 258° West 421 484 43,000  Level Houston Center
05:20PM 31.2017 -93.2847 258° West 421 484 43,000  Level Houston Center
05:21PM 31.1769 -93.4192 258° West 423 487 43,000  Level Houston Center
05:22PM 31.1519 -93.5525 258° West 424 488 43,000 -180 Level Houston Center
05:23PM 31.1222 -93.7142 258° West 427 491 42,700 -660 Descending Houston Center
05:25PM 31.0964 -93.8517 258° West 433 498 41,700 -1,620 Descending Houston Center
05:26PM 31.0667 -94.0006 257° West 431 496 39,400 -2,640 Descending Houston Center
05:27PM 31.0392 -94.1428 257° West 444 511 36,200 -2,940 Descending Houston Center
05:28PM 31.0097 -94.2883 257° West 459 528 33,400 -2,520 Descending Houston Center
05:29PM 30.9808 -94.4364 257° West 465 535 31,000 -2,400 Descending Houston Center
05:30PM 30.9517 -94.5856 257° West 466 536 28,500 -2,400 Descending Houston Center
05:31PM 30.9236 -94.7289 257° West 453 521 26,100 -2,340 Descending Houston Center
05:32PM 30.8969 -94.8669 257° West 438 504 23,700 -2,340 Descending Houston Center
05:33PM 30.8706 -94.9983 257° West 420 483 21,300 -2,640 Descending Houston Center
05:34PM 30.8389 -95.1519 257° West 409 471 18,300 -2,640 Descending Houston Center
05:35PM 30.8144 -95.2775 257° West 401 461 15,800 -2,400 Descending Houston Center
05:36PM 30.7892 -95.4031 257° West 399 459 13,300 -2,400 Descending Houston Center
05:37PM 30.7731 -95.5253 261° West 382 440 10,900 -1,860 Descending Houston Center
05:38PM 30.7644 -95.6567 266° West 364 419 9,500 -1,140 Descending Houston Center
05:39PM 30.7589 -95.7594 266° West 284 327 8,600 -840 Descending Houston Center
05:40PM 30.7683 -95.8433 277° West 247 284 7,800 -960 Descending Houston Center
05:41PM 30.7892 -95.9283 286° West 263 303 6,600 -1,560 Descending Houston Center
05:42PM 30.8072 -96.0186 283° West 283 326 4,600 -1,260 Descending Houston Center
05:43PM 30.8189 -96.1014 279° West 275 316 4,000 -480 Descending Houston Center
05:44PM 30.7786 -96.1814 240° Southwest 273 314 3,700 -540 Descending Houston Center
05:45PM 30.7347 -96.2633 238° Southwest 262 302 3,000 -420 Descending Houston Center
05:46PM 30.7050 -96.3136 235° Southwest 214 246 2,900 -300 Descending Houston Center
05:47PM 30.6756 -96.3567 232° Southwest 148 170 2,400 -720 Descending Houston Center
05:48PM 30.6456 -96.3744 207° Southwest 116 133 1,500 -840 Descending Houston Center
05:49PM 30.6117 -96.3686 172° South 111 128 700 -840 Descending Houston Center
05:51PM 30.5886 -96.3638 221° Southwest  Level Estimated